Time;durP1;ratioP1;P1;durP2;ratioP2;P2;SDS_P1;SDS_P2;PMS_P1;PMS_P2;Temp;Humidity;BMP_temperature;BMP_pressure;BME280_temperature;BME280_humidity;BME280_pressure;Samples;Min_cycle;Max_cycle;Signal;HPM_P1;HPM_P2
2022/08/01 00:01:53;;;;;;;1.83;1.60;;;21.40;59.00;;;;;;5004040;28;20107;-65
2022/08/01 00:04:19;;;;;;;1.98;1.50;;;21.30;59.20;;;;;;5005886;28;20577;-65
2022/08/01 00:06:45;;;;;;;1.65;1.55;;;21.30;59.20;;;;;;5008674;28;20041;-64
2022/08/01 00:09:10;;;;;;;1.63;1.50;;;21.30;59.30;;;;;;5001220;28;20168;-65
2022/08/01 00:11:36;;;;;;;1.70;1.60;;;21.30;59.30;;;;;;5003125;28;20610;-64
2022/08/01 00:14:02;;;;;;;2.70;1.70;;;21.20;59.30;;;;;;5005762;28;20037;-62
2022/08/01 00:16:28;;;;;;;1.83;1.73;;;21.30;59.70;;;;;;5004051;28;20497;-65
2022/08/01 00:18:54;;;;;;;2.85;1.80;;;21.30;59.60;;;;;;5003246;28;20132;-65
2022/08/01 00:21:20;;;;;;;1.92;1.70;;;21.20;59.60;;;;;;5002993;28;20092;-65
2022/08/01 00:23:46;;;;;;;1.92;1.80;;;21.20;59.60;;;;;;5003074;28;20465;-64
2022/08/01 00:26:12;;;;;;;1.80;1.70;;;21.20;59.60;;;;;;5001205;28;20050;-64
2022/08/01 00:28:38;;;;;;;1.77;1.67;;;21.20;59.80;;;;;;5004380;28;20524;-65
2022/08/01 00:31:04;;;;;;;1.52;1.42;;;21.20;59.70;;;;;;5001743;28;20041;-64
2022/08/01 00:33:29;;;;;;;2.35;1.70;;;21.20;59.70;;;;;;5004629;28;20033;-64
2022/08/01 00:35:55;;;;;;;2.50;1.70;;;21.20;59.70;;;;;;5005317;28;20034;-64
2022/08/01 00:38:21;;;;;;;2.55;1.67;;;21.20;59.60;;;;;;5007519;28;20477;-64
2022/08/01 00:40:47;;;;;;;2.47;1.70;;;21.20;59.60;;;;;;4995674;28;20053;-67
2022/08/01 00:43:13;;;;;;;3.40;1.67;;;21.20;59.80;;;;;;5006940;28;20413;-64
2022/08/01 00:45:38;;;;;;;1.75;1.65;;;21.20;59.60;;;;;;5003064;28;20094;-64
2022/08/01 00:48:04;;;;;;;1.70;1.60;;;21.10;59.50;;;;;;5001633;28;20048;-64
2022/08/01 00:50:30;;;;;;;1.60;1.50;;;21.10;59.70;;;;;;4998626;28;20112;-64
2022/08/01 00:52:57;;;;;;;1.70;1.60;;;21.10;59.60;;;;;;5007773;28;20561;-66
2022/08/01 00:55:23;;;;;;;1.50;1.40;;;21.10;60.00;;;;;;5003865;28;20118;-64
2022/08/01 00:57:49;;;;;;;2.45;1.40;;;21.00;59.90;;;;;;5007574;28;20132;-64
2022/08/01 01:00:15;;;;;;;2.65;1.50;;;21.00;59.90;;;;;;5006763;28;20026;-64
2022/08/01 01:02:41;;;;;;;1.80;1.70;;;21.00;59.80;;;;;;5000708;28;20037;-64
2022/08/01 01:05:07;;;;;;;1.70;1.60;;;21.00;59.80;;;;;;5003525;28;20073;-65
2022/08/01 01:07:56;;;;;;;2.08;1.63;;;20.90;59.80;;;;;;5006384;28;20420;-65
2022/08/01 01:10:42;;;;;;;1.95;1.80;;;20.90;60.50;;;;;;5001912;28;20828;-64
2022/08/01 01:13:31;;;;;;;1.80;1.70;;;20.80;60.60;;;;;;5007049;28;20079;-64
2022/08/01 01:16:11;;;;;;;1.60;1.50;;;20.80;60.70;;;;;;5006200;28;20578;-64
2022/08/01 01:18:45;;;;;;;1.60;1.50;;;20.70;60.40;;;;;;5006679;28;20029;-65
2022/08/01 01:21:26;;;;;;;2.17;1.63;;;20.70;60.10;;;;;;5002822;28;20030;-64
2022/08/01 01:24:13;;;;;;;2.40;1.48;;;20.60;60.30;;;;;;5011031;28;20474;-64
2022/08/01 01:27:10;;;;;;;3.47;1.70;;;20.60;60.80;;;;;;5003190;28;20122;-64
2022/08/01 01:29:40;;;;;;;1.90;1.80;;;20.60;61.60;;;;;;5005416;28;20203;-64
2022/08/01 01:32:20;;;;;;;1.38;1.35;;;20.60;60.80;;;;;;5005859;28;20037;-66
2022/08/01 01:34:49;;;;;;;1.67;1.58;;;20.60;61.10;;;;;;5005956;28;20041;-64
2022/08/01 01:37:18;;;;;;;1.35;1.25;;;20.60;61.10;;;;;;5004687;28;20033;-64
2022/08/01 01:39:46;;;;;;;2.25;1.55;;;20.60;61.00;;;;;;5009538;28;20065;-64
2022/08/01 01:42:12;;;;;;;1.70;1.60;;;20.60;61.00;;;;;;5003727;28;20531;-64
2022/08/01 01:44:39;;;;;;;2.78;1.55;;;20.60;61.10;;;;;;5002823;28;20413;-64
2022/08/01 01:47:05;;;;;;;1.80;1.70;;;20.50;61.10;;;;;;5004477;28;20046;-64
2022/08/01 01:49:32;;;;;;;1.70;1.60;;;20.50;61.00;;;;;;5007172;28;20046;-64
2022/08/01 01:52:00;;;;;;;1.90;1.60;;;20.50;61.30;;;;;;5007123;28;20037;-64
2022/08/01 01:54:32;;;;;;;2.13;1.92;;;20.50;62.10;;;;;;5006599;28;20465;-64
2022/08/01 01:57:00;;;;;;;2.28;1.90;;;20.50;61.50;;;;;;5005816;28;20044;-64
2022/08/01 01:59:29;;;;;;;2.28;2.08;;;20.40;61.70;;;;;;5003107;28;20625;-64
2022/08/01 02:01:58;;;;;;;3.25;2.30;;;20.40;62.00;;;;;;5007445;28;20095;-64
2022/08/01 02:04:25;;;;;;;2.50;2.13;;;20.30;62.00;;;;;;5006859;28;20536;-63
2022/08/01 02:06:52;;;;;;;3.38;2.35;;;20.30;62.00;;;;;;5013027;28;20053;-65
2022/08/01 02:09:20;;;;;;;3.63;2.35;;;20.20;62.30;;;;;;5012114;28;20480;-64
2022/08/01 02:11:47;;;;;;;2.72;2.53;;;20.20;62.60;;;;;;5004613;28;20042;-64
2022/08/01 02:14:14;;;;;;;2.78;2.47;;;20.10;62.80;;;;;;5014974;28;20044;-63
2022/08/01 02:16:43;;;;;;;3.35;2.33;;;20.10;62.90;;;;;;5011936;28;20502;-64
2022/08/01 02:19:10;;;;;;;3.45;2.55;;;20.00;63.20;;;;;;5011207;28;20037;-64
2022/08/01 02:21:41;;;;;;;2.80;2.60;;;20.00;63.30;;;;;;5011341;28;20125;-63
2022/08/01 02:24:16;;;;;;;3.97;2.38;;;20.00;63.40;;;;;;5013799;28;20571;-64
2022/08/01 02:26:47;;;;;;;2.72;2.20;;;19.90;63.70;;;;;;5013004;28;20401;-65
2022/08/01 02:29:19;;;;;;;3.13;2.30;;;19.90;63.70;;;;;;5011747;28;20040;-63
2022/08/01 02:31:46;;;;;;;2.80;2.20;;;19.80;63.70;;;;;;5011402;28;20038;-64
2022/08/01 02:34:17;;;;;;;2.65;2.00;;;19.80;63.40;;;;;;5013395;28;20184;-64
2022/08/01 02:36:45;;;;;;;2.85;2.20;;;19.70;63.80;;;;;;5011351;28;20041;-64
2022/08/01 02:39:14;;;;;;;2.30;2.05;;;19.60;64.00;;;;;;5002454;28;20038;-64
2022/08/01 02:41:45;;;;;;;2.88;1.80;;;19.60;64.10;;;;;;5006555;28;20045;-63
2022/08/01 02:44:21;;;;;;;1.80;1.70;;;19.60;64.10;;;;;;5001980;28;20061;-64
2022/08/01 02:46:57;;;;;;;2.28;1.80;;;19.50;64.30;;;;;;5006019;28;20100;-64
2022/08/01 02:49:25;;;;;;;1.70;1.60;;;19.50;64.60;;;;;;5004282;28;20391;-64
2022/08/01 02:51:54;;;;;;;2.47;1.90;;;19.50;64.40;;;;;;5004127;28;20104;-64
2022/08/01 02:54:22;;;;;;;3.30;1.75;;;19.40;64.60;;;;;;5004244;28;20091;-64
2022/08/01 02:56:49;;;;;;;2.42;1.70;;;19.40;64.70;;;;;;5006313;28;20038;-65
2022/08/01 02:59:20;;;;;;;2.25;1.63;;;19.40;64.50;;;;;;5004532;28;20045;-64
2022/08/01 03:01:47;;;;;;;2.20;2.05;;;19.40;64.60;;;;;;5008101;28;20073;-63
2022/08/01 03:04:14;;;;;;;2.63;2.08;;;19.50;64.60;;;;;;5004254;28;20069;-64
2022/08/01 03:06:41;;;;;;;3.05;2.38;;;19.40;64.60;;;;;;5006829;28;20037;-64
2022/08/01 03:09:08;;;;;;;2.83;2.40;;;19.40;64.60;;;;;;5005731;28;20663;-64
2022/08/01 03:11:37;;;;;;;2.97;2.58;;;19.50;64.80;;;;;;5005287;28;20490;-64
2022/08/01 03:14:07;;;;;;;2.80;2.60;;;19.40;65.00;;;;;;5003173;28;20046;-65
2022/08/01 03:16:35;;;;;;;4.30;2.45;;;19.40;65.20;;;;;;5004015;28;20041;-64
2022/08/01 03:19:02;;;;;;;3.00;2.70;;;19.40;65.20;;;;;;5004788;28;20073;-63
2022/08/01 03:21:29;;;;;;;3.20;2.90;;;19.30;65.20;;;;;;5005356;28;20038;-64
2022/08/01 03:23:57;;;;;;;2.60;2.40;;;19.30;65.50;;;;;;5007460;28;20041;-64
2022/08/01 03:26:28;;;;;;;4.53;2.58;;;19.30;65.80;;;;;;5001786;28;20447;-64
2022/08/01 03:28:58;;;;;;;2.60;2.40;;;19.20;65.90;;;;;;5008410;28;20034;-64
2022/08/01 03:31:26;;;;;;;3.65;2.75;;;19.20;65.50;;;;;;5003361;28;20038;-64
2022/08/01 03:33:51;;;;;;;3.97;2.75;;;19.20;65.70;;;;;;5005522;28;20116;-65
2022/08/01 03:36:23;;;;;;;2.88;2.60;;;19.20;66.00;;;;;;5003442;28;20560;-65
2022/08/01 03:38:51;;;;;;;3.53;2.70;;;19.20;66.10;;;;;;5006250;28;20528;-64
2022/08/01 03:41:20;;;;;;;4.10;2.80;;;19.10;66.20;;;;;;5006454;28;20513;-64
2022/08/01 03:43:58;;;;;;;2.70;2.50;;;19.10;66.70;;;;;;5005267;28;20587;-64
2022/08/01 03:46:31;;;;;;;2.42;2.22;;;19.10;66.90;;;;;;4999891;28;20536;-64
2022/08/01 03:49:01;;;;;;;3.50;2.83;;;19.10;66.80;;;;;;5003196;28;20048;-64
2022/08/01 03:51:28;;;;;;;5.25;2.78;;;19.10;66.60;;;;;;5004736;28;20409;-63
2022/08/01 03:53:55;;;;;;;3.17;2.88;;;19.10;66.40;;;;;;5003987;28;20033;-64
2022/08/01 03:56:22;;;;;;;2.78;2.58;;;19.10;66.50;;;;;;5003306;28;20049;-63
2022/08/01 03:58:49;;;;;;;4.45;2.67;;;19.00;66.40;;;;;;5007911;28;20110;-64
2022/08/01 04:01:14;;;;;;;3.03;2.83;;;19.10;67.30;;;;;;5003628;28;20040;-64
2022/08/01 04:03:41;;;;;;;3.35;2.80;;;19.00;66.40;;;;;;5003988;28;20161;-65
2022/08/01 04:06:08;;;;;;;4.40;2.85;;;19.10;66.60;;;;;;5005252;28;20058;-64
2022/08/01 04:08:38;;;;;;;3.17;2.88;;;19.10;66.60;;;;;;5007378;28;20030;-64
2022/08/01 04:11:04;;;;;;;2.75;2.55;;;19.10;66.90;;;;;;4999294;28;20398;-64
2022/08/01 04:13:31;;;;;;;3.30;2.80;;;19.10;66.40;;;;;;5005103;28;20041;-63
2022/08/01 04:15:57;;;;;;;4.95;2.70;;;19.20;66.70;;;;;;5001913;28;20140;-64
2022/08/01 04:18:22;;;;;;;3.17;2.45;;;19.10;67.40;;;;;;5004408;28;20548;-64
2022/08/01 04:20:48;;;;;;;2.92;2.30;;;19.20;66.60;;;;;;5003523;28;20029;-64
2022/08/01 04:23:18;;;;;;;2.88;2.30;;;19.20;66.60;;;;;;5007019;28;20037;-64
2022/08/01 04:25:45;;;;;;;5.75;2.90;;;19.20;66.70;;;;;;5000785;28;20038;-63
2022/08/01 04:28:16;;;;;;;3.65;2.60;;;19.20;66.60;;;;;;5009990;28;20637;-64
2022/08/01 04:30:44;;;;;;;4.03;3.00;;;19.20;66.90;;;;;;5006708;28;20037;-64
2022/08/01 04:33:15;;;;;;;3.92;2.90;;;19.20;66.90;;;;;;5007751;28;20045;-64
2022/08/01 04:35:45;;;;;;;3.78;2.97;;;19.20;67.00;;;;;;5009877;28;20041;-63
2022/08/01 04:38:12;;;;;;;2.78;2.58;;;19.20;67.00;;;;;;5010287;28;20541;-63
2022/08/01 04:40:42;;;;;;;3.67;2.70;;;19.20;66.90;;;;;;5008992;28;20048;-64
2022/08/01 04:43:08;;;;;;;3.35;2.47;;;19.20;66.70;;;;;;5006435;28;20061;-64
2022/08/01 04:45:35;;;;;;;2.97;2.70;;;19.20;66.90;;;;;;5011576;28;20334;-64
2022/08/01 04:48:01;;;;;;;3.35;2.70;;;19.20;67.10;;;;;;5008094;28;20129;-63
2022/08/01 04:50:27;;;;;;;2.88;2.67;;;19.20;67.10;;;;;;5010893;28;20490;-64
2022/08/01 04:52:53;;;;;;;3.22;2.90;;;19.20;67.40;;;;;;5009640;28;20060;-64
2022/08/01 04:55:19;;;;;;;2.63;2.42;;;19.20;67.30;;;;;;5012021;28;20485;-64
2022/08/01 04:57:46;;;;;;;3.03;2.65;;;19.20;67.30;;;;;;5007146;28;20104;-64
2022/08/01 05:00:13;;;;;;;3.72;2.45;;;19.20;67.70;;;;;;5013202;28;20044;-64
2022/08/01 05:02:38;;;;;;;3.20;2.65;;;19.20;67.60;;;;;;5006136;28;20069;-63
2022/08/01 05:05:05;;;;;;;3.70;2.78;;;19.20;67.80;;;;;;5010021;28;20068;-63
2022/08/01 05:07:32;;;;;;;3.60;2.60;;;19.20;68.00;;;;;;5008943;28;20065;-64
2022/08/01 05:09:58;;;;;;;3.10;2.80;;;19.20;68.00;;;;;;5010281;28;20061;-64
2022/08/01 05:12:23;;;;;;;3.67;2.50;;;19.20;68.20;;;;;;5002270;28;20537;-64
2022/08/01 05:14:49;;;;;;;2.70;2.42;;;19.20;68.20;;;;;;5010603;28;20030;-64
2022/08/01 05:17:16;;;;;;;3.17;2.60;;;19.20;68.40;;;;;;5006732;28;20065;-64
2022/08/01 05:19:42;;;;;;;4.43;2.60;;;19.20;68.50;;;;;;5011120;28;20042;-64
2022/08/01 05:22:09;;;;;;;4.05;2.47;;;19.20;68.90;;;;;;5009074;28;20056;-64
2022/08/01 05:24:37;;;;;;;2.60;2.40;;;19.20;68.90;;;;;;5011264;28;20187;-63
2022/08/01 05:27:04;;;;;;;4.00;2.22;;;19.20;69.20;;;;;;5007969;28;20049;-64
2022/08/01 05:29:30;;;;;;;5.05;2.40;;;19.20;69.30;;;;;;5009266;28;20185;-64
2022/08/01 05:31:56;;;;;;;3.22;2.35;;;19.30;69.70;;;;;;5008299;28;20033;-64
2022/08/01 05:34:22;;;;;;;5.97;2.50;;;19.40;70.00;;;;;;5005664;28;20038;-64
2022/08/01 05:36:48;;;;;;;5.43;2.33;;;19.50;71.30;;;;;;5008397;28;20034;-64
2022/08/01 05:39:14;;;;;;;2.63;2.35;;;19.50;70.60;;;;;;5014188;28;20154;-64
2022/08/01 05:41:40;;;;;;;7.35;2.58;;;19.60;71.40;;;;;;5013410;28;20042;-64
2022/08/01 05:44:06;;;;;;;15.90;2.60;;;19.60;70.40;;;;;;5014593;28;20044;-64
2022/08/01 05:46:33;;;;;;;4.93;2.60;;;19.70;70.10;;;;;;5010553;28;20034;-64
2022/08/01 05:49:00;;;;;;;6.72;2.45;;;19.80;70.30;;;;;;5005539;28;20052;-63
2022/08/01 05:51:26;;;;;;;6.18;2.20;;;19.90;70.30;;;;;;5014611;28;20026;-64
2022/08/01 05:53:52;;;;;;;2.25;1.88;;;19.90;70.20;;;;;;5014489;28;20060;-64
2022/08/01 05:56:18;;;;;;;3.88;2.10;;;20.00;70.40;;;;;;5013386;28;20057;-64
2022/08/01 05:58:44;;;;;;;4.85;2.20;;;20.10;70.40;;;;;;5015563;28;20136;-65
2022/08/01 06:01:10;;;;;;;2.97;1.83;;;20.20;69.80;;;;;;5014143;28;20128;-64
2022/08/01 06:03:36;;;;;;;4.22;1.90;;;20.30;69.00;;;;;;5008666;28;20042;-64
2022/08/01 06:06:02;;;;;;;2.08;1.85;;;20.40;68.30;;;;;;5011622;28;20034;-63
2022/08/01 06:08:28;;;;;;;7.30;2.10;;;20.50;68.00;;;;;;5011791;28;20029;-64
2022/08/01 06:10:54;;;;;;;2.47;1.70;;;20.70;67.70;;;;;;5011221;28;20033;-64
2022/08/01 06:13:19;;;;;;;3.08;1.90;;;20.80;67.40;;;;;;5009637;28;20044;-64
2022/08/01 06:15:46;;;;;;;2.95;1.73;;;20.90;66.80;;;;;;5009101;28;20346;-64
2022/08/01 06:18:12;;;;;;;1.95;1.80;;;21.00;66.40;;;;;;5013901;28;20532;-63
2022/08/01 06:20:38;;;;;;;1.80;1.70;;;21.20;66.10;;;;;;5008760;28;20166;-63
2022/08/01 06:23:03;;;;;;;1.77;1.67;;;21.30;65.80;;;;;;5012521;28;20521;-64
2022/08/01 06:25:29;;;;;;;2.40;1.77;;;21.40;65.80;;;;;;5011536;28;20034;-63
2022/08/01 06:27:55;;;;;;;2.58;1.90;;;21.50;65.60;;;;;;5009097;28;20397;-64
2022/08/01 06:30:21;;;;;;;1.98;1.88;;;21.60;65.30;;;;;;5014643;28;20034;-64
2022/08/01 06:32:47;;;;;;;2.85;1.88;;;21.70;64.50;;;;;;5010229;28;20030;-63
2022/08/01 06:35:13;;;;;;;2.45;1.85;;;21.80;64.00;;;;;;5008663;28;20045;-63
2022/08/01 06:37:39;;;;;;;1.90;1.80;;;22.00;63.70;;;;;;5012328;28;20071;-64
2022/08/01 06:40:07;;;;;;;3.80;1.90;;;22.10;63.40;;;;;;5007727;28;20048;-63
2022/08/01 06:42:36;;;;;;;1.95;1.75;;;22.20;63.20;;;;;;5005868;28;20041;-64
2022/08/01 06:45:07;;;;;;;2.13;1.90;;;22.20;62.70;;;;;;5007016;28;20037;-63
2022/08/01 06:47:33;;;;;;;3.70;2.20;;;22.40;62.60;;;;;;5010361;28;20177;-63
2022/08/01 06:49:59;;;;;;;3.47;2.20;;;22.40;62.20;;;;;;5010643;28;20133;-64
2022/08/01 06:52:25;;;;;;;3.72;2.20;;;22.60;61.30;;;;;;5008190;28;20089;-64
2022/08/01 06:54:50;;;;;;;3.58;1.90;;;22.60;60.70;;;;;;5010388;28;20038;-64
2022/08/01 06:57:16;;;;;;;3.35;2.22;;;22.70;60.60;;;;;;5007611;28;20038;-64
2022/08/01 06:59:42;;;;;;;2.65;1.98;;;22.80;60.30;;;;;;5013941;28;20053;-64
2022/08/01 07:02:07;;;;;;;1.88;1.67;;;22.90;60.20;;;;;;5010120;28;20049;-64
2022/08/01 07:04:34;;;;;;;2.90;1.98;;;22.90;60.00;;;;;;5015129;28;20030;-64
2022/08/01 07:06:59;;;;;;;1.90;1.80;;;23.00;59.80;;;;;;5005807;28;20490;-64
2022/08/01 07:09:26;;;;;;;1.92;1.73;;;23.10;59.50;;;;;;5012097;28;20090;-63
2022/08/01 07:11:52;;;;;;;2.85;2.13;;;23.20;59.50;;;;;;5004502;28;20417;-64
2022/08/01 07:14:18;;;;;;;2.22;1.90;;;23.20;60.00;;;;;;5010560;28;20037;-64
2022/08/01 07:16:44;;;;;;;3.00;2.05;;;23.30;59.70;;;;;;5010131;28;20065;-64
2022/08/01 07:19:10;;;;;;;2.83;1.98;;;23.40;59.10;;;;;;5010201;28;20044;-64
2022/08/01 07:21:36;;;;;;;2.28;2.08;;;23.40;58.90;;;;;;5006773;28;20065;-64
2022/08/01 07:24:01;;;;;;;2.22;2.03;;;23.50;59.00;;;;;;5009507;28;20500;-64
2022/08/01 07:26:27;;;;;;;2.45;2.08;;;23.60;58.60;;;;;;5010256;28;20041;-64
2022/08/01 07:28:53;;;;;;;2.22;2.00;;;23.60;58.30;;;;;;5009431;28;20513;-63
2022/08/01 07:31:19;;;;;;;3.20;2.00;;;23.70;58.40;;;;;;5009992;28;20041;-63
2022/08/01 07:33:45;;;;;;;2.45;2.00;;;23.80;58.10;;;;;;5010557;28;20046;-64
2022/08/01 07:36:12;;;;;;;2.22;1.98;;;23.90;58.10;;;;;;5008712;28;20096;-65
2022/08/01 07:38:37;;;;;;;2.97;1.90;;;23.90;57.90;;;;;;5007453;28;20096;-63
2022/08/01 07:41:03;;;;;;;2.30;2.10;;;24.00;57.90;;;;;;5011786;28;20038;-63
2022/08/01 07:43:29;;;;;;;2.13;1.92;;;24.10;57.80;;;;;;5009347;28;20416;-64
2022/08/01 07:45:54;;;;;;;3.60;2.00;;;24.10;57.50;;;;;;5007634;28;20029;-64
2022/08/01 07:48:23;;;;;;;2.00;1.90;;;24.20;57.60;;;;;;5011249;28;20417;-64
2022/08/01 07:50:50;;;;;;;1.80;1.70;;;24.30;57.50;;;;;;5008258;28;20096;-64
2022/08/01 07:53:16;;;;;;;1.92;1.75;;;24.40;57.40;;;;;;5008697;28;20042;-64
2022/08/01 07:55:41;;;;;;;1.92;1.80;;;24.40;57.30;;;;;;5011608;28;20036;-63
2022/08/01 07:58:07;;;;;;;2.17;1.60;;;24.50;56.90;;;;;;5007160;28;20037;-64
2022/08/01 08:00:33;;;;;;;1.70;1.50;;;24.60;56.90;;;;;;5006873;28;20037;-64
2022/08/01 08:02:59;;;;;;;3.33;1.77;;;24.70;56.60;;;;;;5001758;28;20030;-64
2022/08/01 08:05:26;;;;;;;1.83;1.73;;;24.70;56.30;;;;;;5013173;28;20054;-64
2022/08/01 08:07:51;;;;;;;2.22;1.52;;;24.70;56.30;;;;;;5005455;28;20576;-64
2022/08/01 08:10:17;;;;;;;2.08;1.92;;;24.90;56.50;;;;;;5007741;28;20042;-64
2022/08/01 08:12:43;;;;;;;1.73;1.63;;;24.90;56.10;;;;;;5006496;28;20128;-64
2022/08/01 08:15:09;;;;;;;2.53;1.58;;;25.00;56.20;;;;;;5007304;28;20042;-61
2022/08/01 08:17:35;;;;;;;1.98;1.60;;;25.00;56.00;;;;;;5012161;28;20040;-64
2022/08/01 08:20:04;;;;;;;2.03;1.55;;;25.10;55.70;;;;;;5008702;28;20132;-64
2022/08/01 08:22:29;;;;;;;1.60;1.50;;;25.20;55.70;;;;;;5010788;28;20117;-64
2022/08/01 08:24:55;;;;;;;2.70;1.60;;;25.30;55.40;;;;;;5006700;28;20082;-63
2022/08/01 08:27:21;;;;;;;1.98;1.60;;;25.30;55.00;;;;;;5006804;28;20513;-64
2022/08/01 08:29:46;;;;;;;1.55;1.45;;;25.30;55.00;;;;;;5012412;28;20050;-64
2022/08/01 08:32:12;;;;;;;1.77;1.67;;;25.40;55.10;;;;;;5006533;28;20278;-64
2022/08/01 08:34:37;;;;;;;1.63;1.52;;;25.50;55.00;;;;;;5004369;28;20041;-64
2022/08/01 08:37:03;;;;;;;1.73;1.63;;;25.50;54.40;;;;;;5012970;28;20493;-64
2022/08/01 08:39:29;;;;;;;1.85;1.60;;;25.50;54.60;;;;;;5006403;28;20120;-64
2022/08/01 08:41:58;;;;;;;2.17;1.60;;;25.60;54.60;;;;;;5004590;28;20053;-64
2022/08/01 08:44:24;;;;;;;1.60;1.50;;;25.60;54.50;;;;;;5008530;28;20505;-64
2022/08/01 08:46:52;;;;;;;2.30;1.65;;;25.70;54.20;;;;;;5006154;28;20037;-66
2022/08/01 08:49:24;;;;;;;1.40;1.30;;;25.80;54.10;;;;;;5010998;28;20091;-64
2022/08/01 08:51:51;;;;;;;1.77;1.67;;;25.90;54.20;;;;;;5007774;28;20038;-64
2022/08/01 08:54:20;;;;;;;1.50;1.40;;;26.00;54.10;;;;;;5010020;28;20184;-64
2022/08/01 08:56:46;;;;;;;7.38;1.50;;;26.00;53.60;;;;;;5005886;28;20042;-64
2022/08/01 08:59:13;;;;;;;1.73;1.63;;;26.10;54.10;;;;;;5008823;28;20100;-64
2022/08/01 09:01:40;;;;;;;1.45;1.35;;;26.20;53.40;;;;;;5011185;28;20034;-64
2022/08/01 09:04:06;;;;;;;1.45;1.35;;;26.20;53.40;;;;;;5015015;28;20061;-64
2022/08/01 09:06:32;;;;;;;3.40;1.40;;;26.30;53.50;;;;;;5014265;28;20057;-64
2022/08/01 09:08:59;;;;;;;2.65;1.38;;;26.40;53.40;;;;;;5015825;28;20185;-64
2022/08/01 09:11:24;;;;;;;1.50;1.40;;;26.50;53.30;;;;;;5003703;28;20026;-63
2022/08/01 09:14:22;;;;;;;1.50;1.40;;;26.60;53.40;;;;;;5009900;28;20030;-64
2022/08/01 09:17:10;;;;;;;1.80;1.40;;;26.70;53.10;;;;;;5013886;28;20038;-65
2022/08/01 09:19:41;;;;;;;1.40;1.30;;;26.80;52.40;;;;;;5015085;28;20286;-64
2022/08/01 09:22:09;;;;;;;1.80;1.38;;;26.90;51.60;;;;;;5014385;28;20038;-64
2022/08/01 09:24:35;;;;;;;1.48;1.30;;;27.00;52.20;;;;;;5012776;28;20446;-64
2022/08/01 09:27:14;;;;;;;1.73;1.55;;;27.10;51.90;;;;;;5008659;28;20042;-64
2022/08/01 09:29:39;;;;;;;1.67;1.58;;;27.10;51.80;;;;;;5008318;28;20092;-64
2022/08/01 09:32:06;;;;;;;1.50;1.40;;;27.20;51.80;;;;;;5012464;28;20474;-64
2022/08/01 09:34:32;;;;;;;1.20;1.10;;;27.20;51.60;;;;;;5010273;28;20034;-64
2022/08/01 09:37:01;;;;;;;1.48;1.38;;;27.30;51.80;;;;;;5011161;28;20042;-64
2022/08/01 09:39:37;;;;;;;1.75;1.10;;;27.40;51.00;;;;;;5013072;28;20069;-63
2022/08/01 09:42:21;;;;;;;2.83;1.60;;;27.40;51.10;;;;;;5007263;28;20034;-65
2022/08/01 09:44:47;;;;;;;1.30;1.30;;;27.50;51.50;;;;;;5012994;28;20034;-64
2022/08/01 09:47:13;;;;;;;1.88;1.30;;;27.60;51.40;;;;;;5011192;28;20482;-65
2022/08/01 09:49:40;;;;;;;3.22;1.50;;;27.70;51.30;;;;;;5009784;28;20047;-64
2022/08/01 09:52:27;;;;;;;2.45;1.40;;;27.80;51.00;;;;;;5017194;28;20041;-64
2022/08/01 09:55:05;;;;;;;5.25;1.42;;;27.90;50.50;;;;;;5009877;28;20095;-62
2022/08/01 09:57:30;;;;;;;1.48;1.38;;;28.00;49.80;;;;;;5005910;28;20029;-64
2022/08/01 09:59:58;;;;;;;1.50;1.40;;;28.10;50.40;;;;;;5012649;28;20041;-62
2022/08/01 10:02:39;;;;;;;1.40;1.30;;;28.20;50.40;;;;;;5011333;28;20046;-64
2022/08/01 10:05:07;;;;;;;3.05;1.40;;;28.30;49.30;;;;;;5011631;28;20034;-64
2022/08/01 10:07:34;;;;;;;3.97;1.60;;;28.40;49.80;;;;;;5013940;28;20034;-64
2022/08/01 10:10:20;;;;;;;1.55;1.30;;;28.40;49.50;;;;;;5012213;28;20075;-65
2022/08/01 10:12:47;;;;;;;1.40;1.30;;;28.40;49.00;;;;;;5006074;28;20379;-64
2022/08/01 10:15:17;;;;;;;1.77;1.13;;;28.50;49.20;;;;;;5007985;28;20487;-64
2022/08/01 10:17:54;;;;;;;1.23;1.20;;;28.50;48.70;;;;;;5009181;28;20041;-64
2022/08/01 10:20:22;;;;;;;1.75;1.20;;;28.60;49.40;;;;;;5010641;28;20516;-65
2022/08/01 10:22:51;;;;;;;1.40;1.20;;;28.60;49.30;;;;;;5007347;28;20053;-64
2022/08/01 10:25:19;;;;;;;2.97;1.25;;;28.70;48.30;;;;;;5008380;28;20029;-64
2022/08/01 10:27:48;;;;;;;1.33;1.10;;;28.80;48.40;;;;;;5012101;28;20109;-65
2022/08/01 10:30:14;;;;;;;1.80;1.20;;;28.90;48.90;;;;;;5010424;28;20034;-63
2022/08/01 10:32:42;;;;;;;1.40;0.98;;;29.00;48.70;;;;;;5007151;28;20390;-64
2022/08/01 10:35:08;;;;;;;0.90;0.90;;;29.00;48.50;;;;;;5010747;28;20405;-66
2022/08/01 10:37:35;;;;;;;1.25;1.15;;;29.10;47.40;;;;;;5008105;28;20030;-64
2022/08/01 10:40:01;;;;;;;1.20;1.02;;;29.30;47.00;;;;;;5015058;28;20055;-64
2022/08/01 10:42:27;;;;;;;1.10;0.98;;;29.30;46.30;;;;;;5012315;28;20091;-64
2022/08/01 10:44:55;;;;;;;1.20;1.10;;;29.40;45.90;;;;;;5014242;28;20041;-63
2022/08/01 10:47:27;;;;;;;1.15;1.00;;;29.30;46.10;;;;;;5005360;28;20034;-64
2022/08/01 10:50:11;;;;;;;1.08;1.02;;;29.30;46.30;;;;;;5009462;28;20038;-64
2022/08/01 10:52:37;;;;;;;1.58;1.02;;;29.40;46.10;;;;;;5010091;28;20038;-64
2022/08/01 10:55:09;;;;;;;1.15;1.15;;;29.40;46.20;;;;;;5010993;28;20050;-66
2022/08/01 10:57:45;;;;;;;1.33;1.23;;;29.50;45.40;;;;;;5010529;28;20045;-65
2022/08/01 11:00:20;;;;;;;1.30;1.20;;;29.50;45.60;;;;;;5009514;28;20517;-65
2022/08/01 11:03:03;;;;;;;;;;;29.60;45.60;;;;;;5009771;28;20038;-62
2022/08/01 11:05:32;;;;;;;0.88;0.85;;;29.60;46.10;;;;;;5008115;28;19921;-64
2022/08/01 11:08:02;;;;;;;1.10;1.00;;;29.70;45.00;;;;;;5011563;28;20041;-65
2022/08/01 11:10:28;;;;;;;1.30;1.20;;;29.60;44.80;;;;;;5010109;28;20034;-64
2022/08/01 11:12:53;;;;;;;1.40;1.30;;;29.60;45.20;;;;;;5006492;28;20409;-64
2022/08/01 11:15:30;;;;;;;1.05;0.95;;;29.50;45.00;;;;;;5011198;28;20581;-64
2022/08/01 11:17:57;;;;;;;1.95;1.20;;;29.40;44.80;;;;;;5010542;28;20046;-65
2022/08/01 11:20:26;;;;;;;1.48;1.25;;;29.40;45.50;;;;;;5007466;28;20061;-64
2022/08/01 11:23:00;;;;;;;1.15;1.10;;;29.40;45.40;;;;;;5008010;28;20510;-64
2022/08/01 11:25:47;;;;;;;1.02;1.02;;;29.30;44.70;;;;;;5012642;28;20468;-64
2022/08/01 11:28:16;;;;;;;1.00;1.00;;;29.30;45.20;;;;;;5007227;28;20100;-64
2022/08/01 11:30:54;;;;;;;1.02;1.00;;;29.30;45.60;;;;;;5009788;28;20120;-64
2022/08/01 11:33:39;;;;;;;3.10;1.20;;;29.20;45.20;;;;;;5008711;28;20034;-66
2022/08/01 11:36:11;;;;;;;1.30;1.20;;;29.30;45.40;;;;;;5007301;28;20034;-64
2022/08/01 11:39:02;;;;;;;3.22;1.40;;;29.20;45.80;;;;;;5009441;28;20042;-64
2022/08/01 11:41:33;;;;;;;3.15;1.20;;;29.10;46.00;;;;;;5010054;28;20548;-64
2022/08/01 11:44:02;;;;;;;1.63;1.50;;;29.20;46.00;;;;;;5011467;28;20033;-65
2022/08/01 11:46:51;;;;;;;1.55;1.30;;;29.20;45.50;;;;;;5006809;28;20061;-64
2022/08/01 11:49:36;;;;;;;1.27;1.17;;;29.10;45.10;;;;;;5010590;28;20116;-64
2022/08/01 11:52:12;;;;;;;1.25;1.17;;;29.10;45.10;;;;;;5009896;28;20033;-64
2022/08/01 11:54:39;;;;;;;1.40;1.30;;;29.10;44.90;;;;;;5011709;28;20413;-64
2022/08/01 11:57:14;;;;;;;4.03;1.50;;;29.00;45.00;;;;;;5008066;28;20402;-64
2022/08/01 11:59:48;;;;;;;1.70;1.20;;;28.90;45.40;;;;;;5010582;28;20502;-64
2022/08/01 12:02:23;;;;;;;1.20;1.10;;;28.90;45.60;;;;;;5010737;28;20445;-64
2022/08/01 12:04:59;;;;;;;1.10;1.10;;;28.90;45.10;;;;;;5008743;28;20038;-64
2022/08/01 12:07:28;;;;;;;1.40;1.30;;;28.90;45.20;;;;;;5009892;28;20137;-64
2022/08/01 12:10:14;;;;;;;1.30;1.20;;;28.90;45.90;;;;;;5010787;28;20765;-64
2022/08/01 12:12:51;;;;;;;2.55;1.08;;;29.00;44.40;;;;;;5006167;28;20033;-64
2022/08/01 12:15:19;;;;;;;1.50;1.23;;;29.10;45.20;;;;;;5008627;28;20061;-65
2022/08/01 12:17:48;;;;;;;1.60;1.40;;;29.10;45.00;;;;;;5005776;28;20046;-65
2022/08/01 12:20:20;;;;;;;2.17;1.33;;;29.10;44.90;;;;;;5008708;28;20037;-64
2022/08/01 12:22:46;;;;;;;1.13;1.10;;;29.20;44.60;;;;;;5010869;28;20097;-64
2022/08/01 12:25:15;;;;;;;1.52;1.40;;;29.10;44.90;;;;;;5009690;28;21003;-64
2022/08/01 12:27:42;;;;;;;1.25;1.15;;;29.10;45.20;;;;;;5009854;28;20569;-65
2022/08/01 12:30:11;;;;;;;5.60;1.40;;;29.10;45.00;;;;;;5010679;28;20152;-64
2022/08/01 12:32:39;;;;;;;1.20;1.10;;;29.10;45.20;;;;;;5008461;28;20038;-64
2022/08/01 12:35:12;;;;;;;1.10;1.10;;;29.00;45.30;;;;;;5009314;28;20107;-64
2022/08/01 12:37:46;;;;;;;3.33;1.25;;;29.00;45.40;;;;;;5011085;28;20502;-64
2022/08/01 12:40:17;;;;;;;2.08;1.40;;;28.90;44.60;;;;;;5010975;28;20049;-65
2022/08/01 12:42:45;;;;;;;1.40;1.30;;;28.80;45.50;;;;;;5008956;28;20071;-65
2022/08/01 12:45:14;;;;;;;1.40;1.30;;;28.70;46.20;;;;;;5005979;28;20197;-64
2022/08/01 12:47:40;;;;;;;1.52;1.42;;;28.70;46.30;;;;;;5011923;28;20037;-64
2022/08/01 12:50:21;;;;;;;2.47;1.27;;;28.60;47.70;;;;;;5013644;28;20057;-65
2022/08/01 12:52:47;;;;;;;2.13;1.40;;;28.60;50.00;;;;;;5010761;28;20042;-64
2022/08/01 12:55:20;;;;;;;1.52;1.42;;;28.50;48.80;;;;;;5010297;28;20582;-65
2022/08/01 12:58:02;;;;;;;3.38;1.33;;;28.50;49.50;;;;;;5014528;28;20214;-64